sensor_id;sensor_type;location;lat;lon;timestamp;pressure;altitude;pressure_sealevel;temperature
15575;BMP180;7888;46.748;8.102;2023-07-22T00:01:02;94202.00;;;22.30
15575;BMP180;7888;46.748;8.102;2023-07-22T00:03:28;94181.00;;;22.30
15575;BMP180;7888;46.748;8.102;2023-07-22T00:06:09;94196.00;;;22.20
15575;BMP180;7888;46.748;8.102;2023-07-22T00:08:37;94191.00;;;22.30
15575;BMP180;7888;46.748;8.102;2023-07-22T00:11:05;94163.00;;;22.30
15575;BMP180;7888;46.748;8.102;2023-07-22T00:13:31;94170.00;;;22.30
15575;BMP180;7888;46.748;8.102;2023-07-22T00:15:58;94171.00;;;22.30
15575;BMP180;7888;46.748;8.102;2023-07-22T00:18:25;94188.00;;;22.30
15575;BMP180;7888;46.748;8.102;2023-07-22T00:20:54;94178.00;;;22.30
15575;BMP180;7888;46.748;8.102;2023-07-22T00:23:20;94180.00;;;22.30
15575;BMP180;7888;46.748;8.102;2023-07-22T00:25:46;94173.00;;;22.30
15575;BMP180;7888;46.748;8.102;2023-07-22T00:28:12;94166.00;;;22.30
15575;BMP180;7888;46.748;8.102;2023-07-22T00:30:38;94163.00;;;22.30
15575;BMP180;7888;46.748;8.102;2023-07-22T00:33:04;94163.00;;;22.30
15575;BMP180;7888;46.748;8.102;2023-07-22T00:35:31;94163.00;;;22.30
15575;BMP180;7888;46.748;8.102;2023-07-22T00:37:58;94168.00;;;22.30
15575;BMP180;7888;46.748;8.102;2023-07-22T00:40:24;94163.00;;;22.30
15575;BMP180;7888;46.748;8.102;2023-07-22T00:42:50;94159.00;;;22.30
15575;BMP180;7888;46.748;8.102;2023-07-22T00:45:16;94139.00;;;22.20
15575;BMP180;7888;46.748;8.102;2023-07-22T00:47:43;94137.00;;;22.20
15575;BMP180;7888;46.748;8.102;2023-07-22T00:50:09;94166.00;;;22.20
15575;BMP180;7888;46.748;8.102;2023-07-22T00:52:35;94151.00;;;22.20
15575;BMP180;7888;46.748;8.102;2023-07-22T00:55:02;94154.00;;;22.10
15575;BMP180;7888;46.748;8.102;2023-07-22T00:57:28;94151.00;;;22.10
15575;BMP180;7888;46.748;8.102;2023-07-22T00:59:54;94136.00;;;22.10
15575;BMP180;7888;46.748;8.102;2023-07-22T01:02:21;94153.00;;;22.10
15575;BMP180;7888;46.748;8.102;2023-07-22T01:04:49;94153.00;;;22.10
15575;BMP180;7888;46.748;8.102;2023-07-22T01:07:15;94133.00;;;22.20
15575;BMP180;7888;46.748;8.102;2023-07-22T01:09:43;94150.00;;;22.20
15575;BMP180;7888;46.748;8.102;2023-07-22T01:12:10;94148.00;;;22.20
15575;BMP180;7888;46.748;8.102;2023-07-22T01:14:38;94148.00;;;22.10
15575;BMP180;7888;46.748;8.102;2023-07-22T01:17:08;94145.00;;;22.10
15575;BMP180;7888;46.748;8.102;2023-07-22T01:19:35;94158.00;;;22.20
15575;BMP180;7888;46.748;8.102;2023-07-22T01:22:06;94156.00;;;22.10
15575;BMP180;7888;46.748;8.102;2023-07-22T01:24:34;94157.00;;;22.10
15575;BMP180;7888;46.748;8.102;2023-07-22T01:27:00;94155.00;;;22.10
15575;BMP180;7888;46.748;8.102;2023-07-22T01:29:26;94132.00;;;22.10
15575;BMP180;7888;46.748;8.102;2023-07-22T01:31:54;94140.00;;;22.10
15575;BMP180;7888;46.748;8.102;2023-07-22T01:34:21;94153.00;;;22.10
15575;BMP180;7888;46.748;8.102;2023-07-22T01:36:48;94152.00;;;22.10
15575;BMP180;7888;46.748;8.102;2023-07-22T01:39:15;94150.00;;;22.10
15575;BMP180;7888;46.748;8.102;2023-07-22T01:41:41;94162.00;;;22.10
15575;BMP180;7888;46.748;8.102;2023-07-22T01:44:07;94130.00;;;22.10
15575;BMP180;7888;46.748;8.102;2023-07-22T01:46:34;94161.00;;;22.00
15575;BMP180;7888;46.748;8.102;2023-07-22T01:49:00;94154.00;;;22.10
15575;BMP180;7888;46.748;8.102;2023-07-22T01:51:27;94136.00;;;22.00
15575;BMP180;7888;46.748;8.102;2023-07-22T01:53:53;94167.00;;;22.00
15575;BMP180;7888;46.748;8.102;2023-07-22T01:56:22;94165.00;;;22.00
15575;BMP180;7888;46.748;8.102;2023-07-22T01:58:48;94161.00;;;22.00
15575;BMP180;7888;46.748;8.102;2023-07-22T02:01:14;94151.00;;;22.10
15575;BMP180;7888;46.748;8.102;2023-07-22T02:03:42;94164.00;;;22.10
15575;BMP180;7888;46.748;8.102;2023-07-22T02:06:08;94152.00;;;22.10
15575;BMP180;7888;46.748;8.102;2023-07-22T02:08:34;94130.00;;;22.10
15575;BMP180;7888;46.748;8.102;2023-07-22T02:11:05;94157.00;;;22.10
15575;BMP180;7888;46.748;8.102;2023-07-22T02:13:32;94151.00;;;22.10
15575;BMP180;7888;46.748;8.102;2023-07-22T02:15:59;94145.00;;;22.10
15575;BMP180;7888;46.748;8.102;2023-07-22T02:18:25;94148.00;;;22.10
15575;BMP180;7888;46.748;8.102;2023-07-22T02:20:51;94139.00;;;22.10
15575;BMP180;7888;46.748;8.102;2023-07-22T02:23:18;94158.00;;;22.10
15575;BMP180;7888;46.748;8.102;2023-07-22T02:25:48;94149.00;;;22.10
15575;BMP180;7888;46.748;8.102;2023-07-22T02:28:14;94148.00;;;22.10
15575;BMP180;7888;46.748;8.102;2023-07-22T02:30:41;94152.00;;;22.10
15575;BMP180;7888;46.748;8.102;2023-07-22T02:33:08;94127.00;;;22.10
15575;BMP180;7888;46.748;8.102;2023-07-22T02:35:34;94131.00;;;22.10
15575;BMP180;7888;46.748;8.102;2023-07-22T02:37:59;94149.00;;;22.00
15575;BMP180;7888;46.748;8.102;2023-07-22T02:40:27;94142.00;;;22.00
15575;BMP180;7888;46.748;8.102;2023-07-22T02:42:53;94127.00;;;22.00
15575;BMP180;7888;46.748;8.102;2023-07-22T02:45:18;94130.00;;;22.00
15575;BMP180;7888;46.748;8.102;2023-07-22T02:47:44;94118.00;;;22.00
15575;BMP180;7888;46.748;8.102;2023-07-22T02:50:10;94128.00;;;22.00
15575;BMP180;7888;46.748;8.102;2023-07-22T02:52:36;94132.00;;;22.00
15575;BMP180;7888;46.748;8.102;2023-07-22T02:55:14;94128.00;;;22.00
15575;BMP180;7888;46.748;8.102;2023-07-22T02:57:41;94124.00;;;22.00
15575;BMP180;7888;46.748;8.102;2023-07-22T03:00:08;94126.00;;;22.00
15575;BMP180;7888;46.748;8.102;2023-07-22T03:02:35;94123.00;;;21.90
15575;BMP180;7888;46.748;8.102;2023-07-22T03:05:03;94119.00;;;21.90
15575;BMP180;7888;46.748;8.102;2023-07-22T03:07:31;94118.00;;;21.90
15575;BMP180;7888;46.748;8.102;2023-07-22T03:09:57;94126.00;;;21.90
15575;BMP180;7888;46.748;8.102;2023-07-22T03:12:23;94099.00;;;21.90
15575;BMP180;7888;46.748;8.102;2023-07-22T03:14:48;94113.00;;;21.90
15575;BMP180;7888;46.748;8.102;2023-07-22T03:17:14;94088.00;;;21.90
15575;BMP180;7888;46.748;8.102;2023-07-22T03:19:42;94127.00;;;21.90
15575;BMP180;7888;46.748;8.102;2023-07-22T03:22:07;94107.00;;;21.90
15575;BMP180;7888;46.748;8.102;2023-07-22T03:24:33;94138.00;;;21.90
15575;BMP180;7888;46.748;8.102;2023-07-22T03:26:59;94125.00;;;21.90
15575;BMP180;7888;46.748;8.102;2023-07-22T03:29:25;94137.00;;;21.90
15575;BMP180;7888;46.748;8.102;2023-07-22T03:31:51;94129.00;;;21.90
15575;BMP180;7888;46.748;8.102;2023-07-22T03:34:16;94140.00;;;21.90
15575;BMP180;7888;46.748;8.102;2023-07-22T03:36:42;94123.00;;;21.90
15575;BMP180;7888;46.748;8.102;2023-07-22T03:39:08;94137.00;;;22.00
15575;BMP180;7888;46.748;8.102;2023-07-22T03:41:34;94120.00;;;22.00
15575;BMP180;7888;46.748;8.102;2023-07-22T03:44:00;94131.00;;;22.00
15575;BMP180;7888;46.748;8.102;2023-07-22T03:46:25;94123.00;;;22.00
15575;BMP180;7888;46.748;8.102;2023-07-22T03:48:51;94140.00;;;22.00
15575;BMP180;7888;46.748;8.102;2023-07-22T03:51:17;94125.00;;;22.00
15575;BMP180;7888;46.748;8.102;2023-07-22T03:53:43;94137.00;;;22.00
15575;BMP180;7888;46.748;8.102;2023-07-22T03:56:08;94119.00;;;22.00
15575;BMP180;7888;46.748;8.102;2023-07-22T03:58:34;94126.00;;;22.00
15575;BMP180;7888;46.748;8.102;2023-07-22T04:01:00;94143.00;;;22.00
15575;BMP180;7888;46.748;8.102;2023-07-22T04:03:26;94152.00;;;22.00
15575;BMP180;7888;46.748;8.102;2023-07-22T04:05:57;94148.00;;;22.00
15575;BMP180;7888;46.748;8.102;2023-07-22T04:08:23;94156.00;;;22.00
15575;BMP180;7888;46.748;8.102;2023-07-22T04:10:54;94147.00;;;22.00
15575;BMP180;7888;46.748;8.102;2023-07-22T04:13:20;94143.00;;;22.00
15575;BMP180;7888;46.748;8.102;2023-07-22T04:15:47;94152.00;;;22.00
15575;BMP180;7888;46.748;8.102;2023-07-22T04:18:16;94165.00;;;22.00
15575;BMP180;7888;46.748;8.102;2023-07-22T04:20:42;94155.00;;;22.00
15575;BMP180;7888;46.748;8.102;2023-07-22T04:23:08;94142.00;;;22.00
15575;BMP180;7888;46.748;8.102;2023-07-22T04:25:39;94149.00;;;22.00
15575;BMP180;7888;46.748;8.102;2023-07-22T04:28:04;94141.00;;;22.00
15575;BMP180;7888;46.748;8.102;2023-07-22T04:30:30;94165.00;;;22.00
15575;BMP180;7888;46.748;8.102;2023-07-22T04:32:56;94165.00;;;21.90
15575;BMP180;7888;46.748;8.102;2023-07-22T04:35:22;94143.00;;;22.00
15575;BMP180;7888;46.748;8.102;2023-07-22T04:37:47;94157.00;;;22.00
15575;BMP180;7888;46.748;8.102;2023-07-22T04:40:13;94150.00;;;22.00
15575;BMP180;7888;46.748;8.102;2023-07-22T04:42:41;94154.00;;;22.00
15575;BMP180;7888;46.748;8.102;2023-07-22T04:45:09;94176.00;;;22.00
15575;BMP180;7888;46.748;8.102;2023-07-22T04:47:36;94181.00;;;22.00
15575;BMP180;7888;46.748;8.102;2023-07-22T04:50:02;94181.00;;;22.00
15575;BMP180;7888;46.748;8.102;2023-07-22T04:52:29;94160.00;;;22.00
15575;BMP180;7888;46.748;8.102;2023-07-22T04:54:55;94189.00;;;22.00
15575;BMP180;7888;46.748;8.102;2023-07-22T04:57:21;94171.00;;;22.00
15575;BMP180;7888;46.748;8.102;2023-07-22T04:59:47;94194.00;;;22.00
15575;BMP180;7888;46.748;8.102;2023-07-22T05:02:13;94191.00;;;22.00
15575;BMP180;7888;46.748;8.102;2023-07-22T05:04:38;94181.00;;;22.00
15575;BMP180;7888;46.748;8.102;2023-07-22T05:07:04;94192.00;;;22.00
15575;BMP180;7888;46.748;8.102;2023-07-22T05:09:30;94183.00;;;22.10
15575;BMP180;7888;46.748;8.102;2023-07-22T05:11:56;94183.00;;;22.10
15575;BMP180;7888;46.748;8.102;2023-07-22T05:14:23;94209.00;;;22.10
15575;BMP180;7888;46.748;8.102;2023-07-22T05:16:48;94183.00;;;22.10
15575;BMP180;7888;46.748;8.102;2023-07-22T05:19:14;94200.00;;;22.20
15575;BMP180;7888;46.748;8.102;2023-07-22T05:21:40;94196.00;;;22.10
15575;BMP180;7888;46.748;8.102;2023-07-22T05:24:06;94171.00;;;22.20
15575;BMP180;7888;46.748;8.102;2023-07-22T05:26:32;94202.00;;;22.10
15575;BMP180;7888;46.748;8.102;2023-07-22T05:28:58;94206.00;;;22.10
15575;BMP180;7888;46.748;8.102;2023-07-22T05:31:24;94204.00;;;22.10
15575;BMP180;7888;46.748;8.102;2023-07-22T05:33:49;94215.00;;;22.10
15575;BMP180;7888;46.748;8.102;2023-07-22T05:36:15;94214.00;;;22.10
15575;BMP180;7888;46.748;8.102;2023-07-22T05:38:41;94200.00;;;22.10
15575;BMP180;7888;46.748;8.102;2023-07-22T05:41:07;94222.00;;;22.10
15575;BMP180;7888;46.748;8.102;2023-07-22T05:43:32;94225.00;;;22.10
15575;BMP180;7888;46.748;8.102;2023-07-22T05:45:58;94223.00;;;22.10
15575;BMP180;7888;46.748;8.102;2023-07-22T05:48:24;94227.00;;;22.10
15575;BMP180;7888;46.748;8.102;2023-07-22T05:50:49;94209.00;;;22.10
15575;BMP180;7888;46.748;8.102;2023-07-22T05:53:15;94224.00;;;22.00
15575;BMP180;7888;46.748;8.102;2023-07-22T05:55:41;94214.00;;;22.10
15575;BMP180;7888;46.748;8.102;2023-07-22T05:58:15;94211.00;;;22.00
15575;BMP180;7888;46.748;8.102;2023-07-22T06:00:41;94214.00;;;21.90
15575;BMP180;7888;46.748;8.102;2023-07-22T06:03:07;94221.00;;;21.90
15575;BMP180;7888;46.748;8.102;2023-07-22T06:05:32;94217.00;;;21.90
15575;BMP180;7888;46.748;8.102;2023-07-22T06:07:58;94214.00;;;21.90
15575;BMP180;7888;46.748;8.102;2023-07-22T06:10:24;94211.00;;;21.90
15575;BMP180;7888;46.748;8.102;2023-07-22T06:12:50;94211.00;;;21.90
15575;BMP180;7888;46.748;8.102;2023-07-22T06:15:16;94201.00;;;22.00
15575;BMP180;7888;46.748;8.102;2023-07-22T06:17:42;94218.00;;;22.00
15575;BMP180;7888;46.748;8.102;2023-07-22T06:20:08;94206.00;;;22.10
15575;BMP180;7888;46.748;8.102;2023-07-22T06:22:34;94227.00;;;22.10
15575;BMP180;7888;46.748;8.102;2023-07-22T06:25:00;94225.00;;;22.10
15575;BMP180;7888;46.748;8.102;2023-07-22T06:27:26;94237.00;;;22.10
15575;BMP180;7888;46.748;8.102;2023-07-22T06:29:51;94213.00;;;22.10
15575;BMP180;7888;46.748;8.102;2023-07-22T06:32:17;94227.00;;;22.10
15575;BMP180;7888;46.748;8.102;2023-07-22T06:34:43;94205.00;;;22.10
15575;BMP180;7888;46.748;8.102;2023-07-22T06:37:08;94223.00;;;22.20
15575;BMP180;7888;46.748;8.102;2023-07-22T06:39:34;94234.00;;;22.20
15575;BMP180;7888;46.748;8.102;2023-07-22T06:42:00;94235.00;;;22.30
15575;BMP180;7888;46.748;8.102;2023-07-22T06:44:26;94238.00;;;22.30
15575;BMP180;7888;46.748;8.102;2023-07-22T06:46:51;94226.00;;;22.30
15575;BMP180;7888;46.748;8.102;2023-07-22T06:49:17;94236.00;;;22.30
15575;BMP180;7888;46.748;8.102;2023-07-22T06:51:43;94240.00;;;22.30
15575;BMP180;7888;46.748;8.102;2023-07-22T06:54:08;94230.00;;;22.30
15575;BMP180;7888;46.748;8.102;2023-07-22T06:56:34;94238.00;;;22.30
15575;BMP180;7888;46.748;8.102;2023-07-22T06:59:00;94240.00;;;22.30
15575;BMP180;7888;46.748;8.102;2023-07-22T07:01:25;94241.00;;;22.30
15575;BMP180;7888;46.748;8.102;2023-07-22T07:03:51;94234.00;;;22.40
15575;BMP180;7888;46.748;8.102;2023-07-22T07:06:17;94247.00;;;22.40
15575;BMP180;7888;46.748;8.102;2023-07-22T07:08:42;94235.00;;;22.50
15575;BMP180;7888;46.748;8.102;2023-07-22T07:11:08;94235.00;;;22.50
15575;BMP180;7888;46.748;8.102;2023-07-22T07:13:34;94247.00;;;22.60
15575;BMP180;7888;46.748;8.102;2023-07-22T07:16:28;94250.00;;;22.50
15575;BMP180;7888;46.748;8.102;2023-07-22T07:18:54;94232.00;;;22.60
15575;BMP180;7888;46.748;8.102;2023-07-22T07:21:21;94248.00;;;22.70
15575;BMP180;7888;46.748;8.102;2023-07-22T07:23:48;94252.00;;;22.70
15575;BMP180;7888;46.748;8.102;2023-07-22T07:26:15;94242.00;;;22.70
15575;BMP180;7888;46.748;8.102;2023-07-22T07:28:41;94256.00;;;22.80
15575;BMP180;7888;46.748;8.102;2023-07-22T07:31:07;94243.00;;;22.80
15575;BMP180;7888;46.748;8.102;2023-07-22T07:33:33;94256.00;;;22.80
15575;BMP180;7888;46.748;8.102;2023-07-22T07:36:00;94251.00;;;22.90
15575;BMP180;7888;46.748;8.102;2023-07-22T07:38:26;94247.00;;;22.90
15575;BMP180;7888;46.748;8.102;2023-07-22T07:41:12;94261.00;;;23.00
15575;BMP180;7888;46.748;8.102;2023-07-22T07:43:40;94261.00;;;23.10
15575;BMP180;7888;46.748;8.102;2023-07-22T07:46:24;94262.00;;;23.10
15575;BMP180;7888;46.748;8.102;2023-07-22T07:48:56;94265.00;;;23.30
15575;BMP180;7888;46.748;8.102;2023-07-22T07:51:25;94267.00;;;23.40
15575;BMP180;7888;46.748;8.102;2023-07-22T07:53:53;94256.00;;;23.50
15575;BMP180;7888;46.748;8.102;2023-07-22T07:56:20;94260.00;;;23.60
15575;BMP180;7888;46.748;8.102;2023-07-22T07:58:48;94261.00;;;23.70
15575;BMP180;7888;46.748;8.102;2023-07-22T08:01:16;94263.00;;;23.80
15575;BMP180;7888;46.748;8.102;2023-07-22T08:03:43;94253.00;;;23.90
15575;BMP180;7888;46.748;8.102;2023-07-22T08:06:10;94243.00;;;24.00
15575;BMP180;7888;46.748;8.102;2023-07-22T08:08:37;94264.00;;;24.10
15575;BMP180;7888;46.748;8.102;2023-07-22T08:11:05;94243.00;;;24.20
15575;BMP180;7888;46.748;8.102;2023-07-22T08:13:31;94268.00;;;24.30
15575;BMP180;7888;46.748;8.102;2023-07-22T08:16:01;94254.00;;;24.40
15575;BMP180;7888;46.748;8.102;2023-07-22T08:18:27;94250.00;;;24.40
15575;BMP180;7888;46.748;8.102;2023-07-22T08:20:54;94250.00;;;24.50
15575;BMP180;7888;46.748;8.102;2023-07-22T08:23:20;94264.00;;;24.60
15575;BMP180;7888;46.748;8.102;2023-07-22T08:25:47;94257.00;;;24.60
15575;BMP180;7888;46.748;8.102;2023-07-22T08:28:13;94252.00;;;24.70
15575;BMP180;7888;46.748;8.102;2023-07-22T08:30:38;94267.00;;;24.80
15575;BMP180;7888;46.748;8.102;2023-07-22T08:33:06;94273.00;;;24.90
15575;BMP180;7888;46.748;8.102;2023-07-22T08:35:38;94267.00;;;24.90
15575;BMP180;7888;46.748;8.102;2023-07-22T08:38:07;94261.00;;;24.90
15575;BMP180;7888;46.748;8.102;2023-07-22T08:40:40;94260.00;;;24.90
15575;BMP180;7888;46.748;8.102;2023-07-22T08:43:09;94280.00;;;24.90
15575;BMP180;7888;46.748;8.102;2023-07-22T08:45:37;94275.00;;;24.90
15575;BMP180;7888;46.748;8.102;2023-07-22T08:48:06;94228.00;;;24.90
15575;BMP180;7888;46.748;8.102;2023-07-22T08:53:15;94272.00;;;24.80
15575;BMP180;7888;46.748;8.102;2023-07-22T08:55:42;94264.00;;;24.90
15575;BMP180;7888;46.748;8.102;2023-07-22T08:58:09;94275.00;;;24.90
15575;BMP180;7888;46.748;8.102;2023-07-22T09:00:36;94275.00;;;24.90
15575;BMP180;7888;46.748;8.102;2023-07-22T09:03:02;94273.00;;;24.90
15575;BMP180;7888;46.748;8.102;2023-07-22T09:05:32;94264.00;;;24.90
15575;BMP180;7888;46.748;8.102;2023-07-22T09:08:01;94277.00;;;25.00
15575;BMP180;7888;46.748;8.102;2023-07-22T09:10:28;94284.00;;;25.00
15575;BMP180;7888;46.748;8.102;2023-07-22T09:12:54;94260.00;;;25.10
15575;BMP180;7888;46.748;8.102;2023-07-22T09:15:21;94265.00;;;25.20
15575;BMP180;7888;46.748;8.102;2023-07-22T09:17:49;94272.00;;;25.20
15575;BMP180;7888;46.748;8.102;2023-07-22T09:20:15;94279.00;;;25.30
15575;BMP180;7888;46.748;8.102;2023-07-22T09:22:47;94270.00;;;25.40
15575;BMP180;7888;46.748;8.102;2023-07-22T09:25:25;94264.00;;;25.40
15575;BMP180;7888;46.748;8.102;2023-07-22T09:27:53;94274.00;;;25.50
15575;BMP180;7888;46.748;8.102;2023-07-22T09:32:55;94282.00;;;25.70
15575;BMP180;7888;46.748;8.102;2023-07-22T09:35:22;94266.00;;;25.80
15575;BMP180;7888;46.748;8.102;2023-07-22T09:37:48;94274.00;;;25.80
15575;BMP180;7888;46.748;8.102;2023-07-22T09:40:16;94270.00;;;25.80
15575;BMP180;7888;46.748;8.102;2023-07-22T09:42:57;94273.00;;;25.80
15575;BMP180;7888;46.748;8.102;2023-07-22T09:45:30;94274.00;;;26.00
15575;BMP180;7888;46.748;8.102;2023-07-22T09:47:57;94263.00;;;26.10
15575;BMP180;7888;46.748;8.102;2023-07-22T09:50:26;94238.00;;;26.10
15575;BMP180;7888;46.748;8.102;2023-07-22T09:52:55;94269.00;;;26.20
15575;BMP180;7888;46.748;8.102;2023-07-22T09:55:27;94253.00;;;26.30
15575;BMP180;7888;46.748;8.102;2023-07-22T09:58:02;94272.00;;;26.30
15575;BMP180;7888;46.748;8.102;2023-07-22T10:00:35;94271.00;;;26.30
15575;BMP180;7888;46.748;8.102;2023-07-22T10:03:03;94265.00;;;26.40
15575;BMP180;7888;46.748;8.102;2023-07-22T10:05:35;94235.00;;;26.40
15575;BMP180;7888;46.748;8.102;2023-07-22T10:08:02;94260.00;;;26.50
15575;BMP180;7888;46.748;8.102;2023-07-22T10:10:38;94244.00;;;26.50
15575;BMP180;7888;46.748;8.102;2023-07-22T10:13:05;94249.00;;;26.40
15575;BMP180;7888;46.748;8.102;2023-07-22T10:15:33;94260.00;;;26.70
15575;BMP180;7888;46.748;8.102;2023-07-22T10:18:04;94252.00;;;26.70
15575;BMP180;7888;46.748;8.102;2023-07-22T10:20:31;94248.00;;;26.80
15575;BMP180;7888;46.748;8.102;2023-07-22T10:23:02;94240.00;;;26.80
15575;BMP180;7888;46.748;8.102;2023-07-22T10:25:30;94251.00;;;26.90
15575;BMP180;7888;46.748;8.102;2023-07-22T10:27:56;94256.00;;;26.90
15575;BMP180;7888;46.748;8.102;2023-07-22T10:30:22;94251.00;;;26.90
15575;BMP180;7888;46.748;8.102;2023-07-22T10:32:52;94236.00;;;26.90
15575;BMP180;7888;46.748;8.102;2023-07-22T10:38:15;94229.00;;;27.00
15575;BMP180;7888;46.748;8.102;2023-07-22T10:40:55;94211.00;;;27.10
15575;BMP180;7888;46.748;8.102;2023-07-22T10:43:33;94229.00;;;27.20
15575;BMP180;7888;46.748;8.102;2023-07-22T10:46:08;94237.00;;;27.30
15575;BMP180;7888;46.748;8.102;2023-07-22T10:48:37;94231.00;;;27.40
15575;BMP180;7888;46.748;8.102;2023-07-22T10:51:10;94223.00;;;27.30
15575;BMP180;7888;46.748;8.102;2023-07-22T10:53:45;94217.00;;;27.30
15575;BMP180;7888;46.748;8.102;2023-07-22T10:56:19;94223.00;;;27.40
15575;BMP180;7888;46.748;8.102;2023-07-22T11:01:36;94223.00;;;27.50
15575;BMP180;7888;46.748;8.102;2023-07-22T11:14:26;94213.00;;;28.10
15575;BMP180;7888;46.748;8.102;2023-07-22T11:16:53;94204.00;;;28.30
15575;BMP180;7888;46.748;8.102;2023-07-22T11:19:22;94213.00;;;28.30
15575;BMP180;7888;46.748;8.102;2023-07-22T11:21:51;94210.00;;;28.40
15575;BMP180;7888;46.748;8.102;2023-07-22T11:24:18;94193.00;;;28.50
15575;BMP180;7888;46.748;8.102;2023-07-22T11:26:48;94212.00;;;28.60
15575;BMP180;7888;46.748;8.102;2023-07-22T11:29:15;94212.00;;;28.70
15575;BMP180;7888;46.748;8.102;2023-07-22T11:31:44;94191.00;;;28.70
15575;BMP180;7888;46.748;8.102;2023-07-22T11:34:13;94205.00;;;28.70
15575;BMP180;7888;46.748;8.102;2023-07-22T11:36:39;94166.00;;;28.90
15575;BMP180;7888;46.748;8.102;2023-07-22T11:39:07;94186.00;;;29.00
15575;BMP180;7888;46.748;8.102;2023-07-22T11:41:34;94200.00;;;29.00
15575;BMP180;7888;46.748;8.102;2023-07-22T11:44:02;94194.00;;;29.10
15575;BMP180;7888;46.748;8.102;2023-07-22T11:46:30;94184.00;;;29.20
15575;BMP180;7888;46.748;8.102;2023-07-22T11:48:56;94179.00;;;29.30
15575;BMP180;7888;46.748;8.102;2023-07-22T11:51:24;94189.00;;;29.30
15575;BMP180;7888;46.748;8.102;2023-07-22T11:53:53;94183.00;;;29.50
15575;BMP180;7888;46.748;8.102;2023-07-22T11:56:28;94179.00;;;29.50
15575;BMP180;7888;46.748;8.102;2023-07-22T11:58:57;94199.00;;;29.50
15575;BMP180;7888;46.748;8.102;2023-07-22T12:01:23;94194.00;;;29.60
15575;BMP180;7888;46.748;8.102;2023-07-22T12:03:55;94194.00;;;29.50
15575;BMP180;7888;46.748;8.102;2023-07-22T12:06:25;94194.00;;;29.50
15575;BMP180;7888;46.748;8.102;2023-07-22T12:08:52;94187.00;;;29.50
15575;BMP180;7888;46.748;8.102;2023-07-22T12:11:24;94198.00;;;29.60
15575;BMP180;7888;46.748;8.102;2023-07-22T12:14:07;94177.00;;;29.50
15575;BMP180;7888;46.748;8.102;2023-07-22T12:16:39;94167.00;;;29.60
15575;BMP180;7888;46.748;8.102;2023-07-22T12:19:07;94179.00;;;29.80
15575;BMP180;7888;46.748;8.102;2023-07-22T12:21:33;94166.00;;;29.80
15575;BMP180;7888;46.748;8.102;2023-07-22T12:24:00;94187.00;;;29.70
15575;BMP180;7888;46.748;8.102;2023-07-22T12:26:27;94188.00;;;29.80
15575;BMP180;7888;46.748;8.102;2023-07-22T12:28:53;94156.00;;;29.70
15575;BMP180;7888;46.748;8.102;2023-07-22T12:31:19;94161.00;;;29.80
15575;BMP180;7888;46.748;8.102;2023-07-22T12:33:45;94187.00;;;29.80
15575;BMP180;7888;46.748;8.102;2023-07-22T12:36:11;94155.00;;;29.80
15575;BMP180;7888;46.748;8.102;2023-07-22T12:38:37;94120.00;;;29.70
15575;BMP180;7888;46.748;8.102;2023-07-22T12:41:03;94182.00;;;29.80
15575;BMP180;7888;46.748;8.102;2023-07-22T12:43:29;94177.00;;;29.80
15575;BMP180;7888;46.748;8.102;2023-07-22T12:45:56;94160.00;;;29.80
15575;BMP180;7888;46.748;8.102;2023-07-22T12:48:22;94187.00;;;29.70
15575;BMP180;7888;46.748;8.102;2023-07-22T12:50:50;94124.00;;;29.80
15575;BMP180;7888;46.748;8.102;2023-07-22T12:53:16;94149.00;;;29.90
15575;BMP180;7888;46.748;8.102;2023-07-22T12:55:42;94118.00;;;29.90
15575;BMP180;7888;46.748;8.102;2023-07-22T12:58:08;94156.00;;;30.10
15575;BMP180;7888;46.748;8.102;2023-07-22T13:00:34;94151.00;;;30.10
15575;BMP180;7888;46.748;8.102;2023-07-22T13:02:59;94119.00;;;30.10
15575;BMP180;7888;46.748;8.102;2023-07-22T13:05:25;94153.00;;;30.10
15575;BMP180;7888;46.748;8.102;2023-07-22T13:07:51;94152.00;;;30.10
15575;BMP180;7888;46.748;8.102;2023-07-22T13:10:21;94143.00;;;30.10
15575;BMP180;7888;46.748;8.102;2023-07-22T13:12:51;94132.00;;;30.20
15575;BMP180;7888;46.748;8.102;2023-07-22T13:15:16;94145.00;;;30.10
15575;BMP180;7888;46.748;8.102;2023-07-22T13:17:42;94138.00;;;30.20
15575;BMP180;7888;46.748;8.102;2023-07-22T13:20:08;94156.00;;;30.30
15575;BMP180;7888;46.748;8.102;2023-07-22T13:22:38;94161.00;;;30.30
15575;BMP180;7888;46.748;8.102;2023-07-22T13:25:05;94157.00;;;30.40
15575;BMP180;7888;46.748;8.102;2023-07-22T13:27:32;94142.00;;;30.50
15575;BMP180;7888;46.748;8.102;2023-07-22T13:29:57;94145.00;;;30.50
15575;BMP180;7888;46.748;8.102;2023-07-22T13:32:24;94143.00;;;30.60
15575;BMP180;7888;46.748;8.102;2023-07-22T13:34:49;94150.00;;;30.70
15575;BMP180;7888;46.748;8.102;2023-07-22T13:37:15;94162.00;;;30.70
15575;BMP180;7888;46.748;8.102;2023-07-22T13:39:41;94150.00;;;30.80
15575;BMP180;7888;46.748;8.102;2023-07-22T13:42:08;94151.00;;;30.90
15575;BMP180;7888;46.748;8.102;2023-07-22T13:44:34;94150.00;;;30.90
15575;BMP180;7888;46.748;8.102;2023-07-22T13:47:00;94157.00;;;31.00
15575;BMP180;7888;46.748;8.102;2023-07-22T13:49:26;94156.00;;;31.00
15575;BMP180;7888;46.748;8.102;2023-07-22T13:51:51;94149.00;;;31.00
15575;BMP180;7888;46.748;8.102;2023-07-22T13:54:17;94154.00;;;30.90
15575;BMP180;7888;46.748;8.102;2023-07-22T13:56:45;94142.00;;;30.90
15575;BMP180;7888;46.748;8.102;2023-07-22T13:59:13;94141.00;;;30.80
15575;BMP180;7888;46.748;8.102;2023-07-22T14:01:39;94127.00;;;30.80
15575;BMP180;7888;46.748;8.102;2023-07-22T14:04:05;94138.00;;;30.70
15575;BMP180;7888;46.748;8.102;2023-07-22T14:06:31;94137.00;;;30.70
15575;BMP180;7888;46.748;8.102;2023-07-22T14:08:58;94139.00;;;30.60
15575;BMP180;7888;46.748;8.102;2023-07-22T14:11:24;94140.00;;;30.70
15575;BMP180;7888;46.748;8.102;2023-07-22T14:13:52;94133.00;;;30.60
15575;BMP180;7888;46.748;8.102;2023-07-22T14:16:18;94135.00;;;30.70
15575;BMP180;7888;46.748;8.102;2023-07-22T14:18:44;94139.00;;;30.70
15575;BMP180;7888;46.748;8.102;2023-07-22T14:21:10;94132.00;;;30.80
15575;BMP180;7888;46.748;8.102;2023-07-22T14:23:37;94135.00;;;30.80
15575;BMP180;7888;46.748;8.102;2023-07-22T14:26:03;94123.00;;;30.80
15575;BMP180;7888;46.748;8.102;2023-07-22T14:28:29;94141.00;;;30.80
15575;BMP180;7888;46.748;8.102;2023-07-22T14:30:54;94132.00;;;30.80
15575;BMP180;7888;46.748;8.102;2023-07-22T14:33:20;94121.00;;;30.80
15575;BMP180;7888;46.748;8.102;2023-07-22T14:35:46;94128.00;;;30.70
15575;BMP180;7888;46.748;8.102;2023-07-22T14:38:11;94147.00;;;30.80
15575;BMP180;7888;46.748;8.102;2023-07-22T14:40:37;94131.00;;;30.70
15575;BMP180;7888;46.748;8.102;2023-07-22T14:43:03;94138.00;;;30.70